Dobrodošli na spletni strani vremenske postaje Senovo. Vse informacije so informativnega značaja, saj vremenska postaja ni del državne mreže meteoroloških postaj.

AKTUALNIH OBVESTIL NI.


Izjemno nizke temperature Od: 26-09-2018 00:00 Do: 08:59 Opozorilo za: Izjemno nizke temperature Stopnja: Rumena info button

Pogled proti Armezu več informacij Pogled proti Armezu


Bohor več informacij Bohor


Lisca več informacij Lisca


Radar strel več informacij blitzortung!


Radar padavin več informacij rain snow radar


Obiščite še:

Template documentation
and downloads

And another site



METAR v bližini

   
LJLJ - Ljubljana
Posodobljeno: 26-09-2018 15:00
jasno  
jasno  
   Veter: različen 3.7 km/h
Veter: različen 3.7 km/h
Temperatura: 15°C
Točka rosišča: 0°C
Vlažnost: 36%
Zračni tlak: 1037 hPa
Vidljivost: More than 10 km
Podrobnosti o oblakih: jasno
LJLJ 261300Z VRB02KT CAVOK 15/00 Q1037 NOSIG
LJCE - Cerklje ob Krki
Posodobljeno: 26-09-2018 15:00
jasno  
jasno  
   Veter: ZSZ 1.9 km/h
Veter: ZSZ 1.9 km/h
Temperatura: 16°C
Točka rosišča: 1°C
Vlažnost: 36%
Zračni tlak: 1037 hPa
Vidljivost: More than 10 km
Podrobnosti o oblakih: jasno
LJCE 261300Z 30001KT CAVOK 16/01 Q1037 RMK BLU
LJMB - Maribor
Posodobljeno: 26-09-2018 15:00
jasno  
jasno  
   Veter: Jug 13 km/h
Veter: Jug 13 km/h
Temperatura: 15°C
Točka rosišča: -2°C
Vlažnost: 31%
Zračni tlak: 1037 hPa
Vidljivost: More than 10 km
Podrobnosti o oblakih: jasno
LJMB 261300Z 17007KT 140V210 CAVOK 15/M02 Q1037
LJPZ - Portorož
Posodobljeno: 26-09-2018 15:00
jasno  
jasno  
   Veter: SSZ 16.7 km/h
Veter: SSZ 16.7 km/h
Temperatura: 19°C
Točka rosišča: 1°C
Vlažnost: 30%
Zračni tlak: 1035 hPa
Vidljivost: More than 10 km
Podrobnosti o oblakih: jasno
LJPZ 261300Z 34009KT 310V020 CAVOK 19/01 Q1035
LDRI - Rijeka, Airport, Croatia
Posodobljeno: 26-09-2018 15:30
jasno  
jasno  
   Veter: različen 3.7 km/h
Veter: različen 3.7 km/h
Temperatura: 18°C
Točka rosišča: 0°C
Vlažnost: 30%
Zračni tlak: 1035 hPa
Vidljivost: More than 10 km
Podrobnosti o oblakih: jasno
LDRI 261330Z VRB02KT CAVOK 18/M00 Q1035
LOWK - Klagenfurt, Airport, Avstia
Posodobljeno: 26-09-2018 15:20
jasno  
jasno  
   Veter: različen 3.7 km/h
Veter: različen 3.7 km/h
Temperatura: 14°C
Točka rosišča: -5°C
Vlažnost: 27%
Zračni tlak: 1036 hPa
Vidljivost: More than 10 km
Podrobnosti o oblakih: jasno
LOWK 261320Z VRB02KT CAVOK 14/M05 Q1036 NOSIG

Script developed by  Saratoga-weather.org Adapted for the template by  Weerstation Leuven

Vremenski podatki so objavljeni na:

European Weather Network

WeatherCloud

Weather Underground

AWEKAS

HAMweather, WeatherForYou, PWS Weather

MapView

Geostik

Slovenia weather network

Oprema, ki se uporablja:

Vremenski program
Cumulus

Vremenski server
Asus

Cumulus

Asus